This is the latest recevied weather packets stored in our database for station/object KN6CRX. If no packets are shown the sender has not sent any weather packets the latest 10 day(s).
| Time | Temp. | Humidity | Pressure | Rain* | Wind** | Luminosity | Snow |
|---|---|---|---|---|---|---|---|
| 1787953008 | 29.44° C | 33% | 1018.6 hPa | 0 mm | - | 173 W/m² | - |
| 1787952707 | 30.56° C | 33% | 1018.6 hPa | 0 mm | - | 174 W/m² | - |
| 1787952408 | 31.67° C | 31% | 1019 hPa | 0 mm | - | 224 W/m² | - |
| 1787952104 | 31.67° C | 29% | 1018.7 hPa | 0 mm | - | 236 W/m² | - |
| 1787951803 | 30° C | 33% | 1018.9 hPa | 0 mm | - | 754 W/m² | - |
| 1787951498 | 30° C | 31% | 1019 hPa | 0 mm | - | 451 W/m² | - |
| 1787951195 | 30° C | 34% | 1019.2 hPa | 0 mm | - | 226 W/m² | - |
| 1787950890 | 29.44° C | 34% | 1019.2 hPa | 0 mm | - | 316 W/m² | - |
| 1787950586 | 29.44° C | 33% | 1019.2 hPa | 0 mm | - | 580 W/m² | - |
| 1787950281 | 30° C | 33% | 1019.4 hPa | 0 mm | - | 304 W/m² | - |
| 1787949978 | 30.56° C | 31% | 1019.5 hPa | 0 mm | - | 324 W/m² | - |
| 1787949673 | 29.44° C | 32% | 1019.7 hPa | 0 mm | - | 857 W/m² | - |
| 1787949372 | 28.33° C | 35% | 1019.8 hPa | 0 mm | - | 942 W/m² | - |
| 1787949072 | 28.89° C | 33% | 1019.8 hPa | 0 mm | - | 793 W/m² | - |
| 1787948769 | 28.89° C | 36% | 1019.9 hPa | 0 mm | - | 873 W/m² | - |
| 1787948469 | 28.33° C | 36% | 1020 hPa | 0 mm | - | 931 W/m² | - |
| 1787948164 | 27.78° C | 37% | 1020 hPa | 0 mm | - | 413 W/m² | - |
| 1787947863 | 28.89° C | 36% | 1020.2 hPa | 0 mm | - | 223 W/m² | - |
| 1787947563 | 28.33° C | 39% | 1020.1 hPa | 0 mm | - | 905 W/m² | - |
| 1787947257 | 27.78° C | 36% | 1020 hPa | 0 mm | - | 366 W/m² | - |
| 1787946956 | 27.78° C | 36% | 1020.2 hPa | 0 mm | - | 420 W/m² | - |
| 1787946655 | 28.33° C | 36% | 1020.3 hPa | 0 mm | - | 225 W/m² | - |
| 1787946350 | 28.89° C | 34% | 1020.2 hPa | 0 mm | - | 270 W/m² | - |
| 1787946044 | 28.89° C | 34% | 1020.6 hPa | 0 mm | - | 838 W/m² | - |
| 1787945744 | 28.89° C | 34% | 1020.5 hPa | 0 mm | - | 988 W/m² | - |
* Rain latest hour (hover to see other rain measurements)
** Current wind speed in m/s (hover to see current wind gust speed)